Terminal Aerodrome Forecast
Issued by NWS

Home | Current Version | Previous Version | Text Only | Print | Product List | Glossary Off
Versions: 1 2 3 4 5 6 7 8 9 10 11 12 13 14 15 16 17 18

074
FTUS43 KMPX 230329 AAA
TAFAXN
TAF AMD
KAXN 230329Z 2303/2324 18012KT P6SM -SHRA VCTS BKN080CB
      WS020/20050KT
     FM230500 23010KT P6SM VCTS SCT050CB BKN150
     FM231000 34005KT P6SM VCSH BKN015 OVC040
     FM231500 03006KT P6SM -SHRA OVC015=

USA.gov is the U.S. government's official web portal to all federal, state and local government web resources and services.